Flight Track Log - Related Links

Times and Time Zones

All times are in EDT time to prevent confusion due to time zone crossing. See the FIN666 flight status page for this flight to view local times or setup timezone preferences in your user account.

Time Position Orientation Groundspeed Altitude Reporting Facility
EDT Latitude Longitude Course Direction KTS MPH feet Rate Location/Type
Fri 07:32:00 AM 55.9003 13.2410 49° Northeast  Level Estimated
Fri 07:33:00 AM 55.9705 13.3886 50° Northeast  Level Estimated
Fri 07:34:00 AM 56.0434 13.5431 50° Northeast  Level Estimated
Fri 07:35:00 AM 56.1161 13.6980 50° Northeast  Level Estimated
Fri 07:36:00 AM 56.1887 13.8536 50° Northeast  Level Estimated
Fri 07:37:00 AM 56.2611 14.0098 50° Northeast  Level Estimated
Fri 07:38:00 AM 56.3332 14.1665 50° Northeast  Level Estimated
Fri 07:39:00 AM 56.4052 14.3239 50° Northeast  Level Estimated
Fri 07:40:00 AM 56.4769 14.4818 51° Northeast  Level Estimated
Fri 07:41:00 AM 56.5485 14.6404 51° Northeast  Level Estimated
Fri 07:42:00 AM 56.6198 14.7995 51° Northeast  Level Estimated
Fri 07:43:00 AM 56.6910 14.9593 51° Northeast  Level Estimated
Fri 07:44:00 AM 56.7619 15.1196 51° Northeast  Level Estimated
Fri 07:45:00 AM 56.8327 15.2806 51° Northeast  Level Estimated
Fri 07:46:00 AM 56.9032 15.4421 51° Northeast  Level Estimated
Fri 07:47:00 AM 56.9735 15.6043 51° Northeast  Level Estimated
Fri 07:48:00 AM 57.0436 15.7671 52° Northeast  Level Estimated
Fri 07:49:00 AM 57.1135 15.9305 52° Northeast  Level Estimated
Fri 07:50:00 AM 57.1832 16.0945 52° Northeast  Level Estimated
Fri 07:51:00 AM 57.2527 16.2591 52° Northeast  Level Estimated
Fri 07:52:00 AM 57.3219 16.4244 52° Northeast  Level Estimated
Fri 07:53:00 AM 57.3910 16.5903 52° Northeast  Level Estimated
Fri 07:54:00 AM 57.4598 16.7568 52° Northeast  Level Estimated
Fri 07:55:00 AM 57.5284 16.9239 53° Northeast  Level Estimated
Fri 07:56:00 AM 57.5968 17.0917 53° Northeast  Level Estimated
Fri 07:57:00 AM 57.6649 17.2601 53° Northeast  Level Estimated
Fri 07:58:00 AM 57.7328 17.4291 53° Northeast  Level Estimated
Fri 07:59:00 AM 57.8005 17.5987 53° Northeast  Level Estimated
Fri 08:00:00 AM 57.8680 17.7690 53° Northeast  Level Estimated
Fri 08:01:00 AM 57.9353 17.9400 53° Northeast  Level Estimated
Fri 08:02:00 AM 58.0023 18.1115 54° Northeast  Level Estimated
Fri 08:03:00 AM 58.0691 18.2838 54° Northeast  Level Estimated
Fri 08:04:00 AM 58.1356 18.4566 54° Northeast  Level Estimated
Fri 08:05:00 AM 58.2019 18.6301 54° Northeast  Level Estimated
Fri 08:06:00 AM 58.2680 18.8043 54° Northeast  Level Estimated
Fri 08:07:00 AM 58.3339 18.9791 54° Northeast  Level Estimated
Fri 08:08:00 AM 58.3995 19.1546 54° Northeast  Level Estimated
Fri 08:09:00 AM 58.4648 19.3307 55° Northeast  Level Estimated
Fri 08:10:00 AM 58.5299 19.5074 55° Northeast  Level Estimated
Fri 08:11:00 AM 58.5948 19.6849 55° Northeast  Level Estimated
Fri 08:12:00 AM 58.6595 19.8629 55° Northeast  Level Estimated
Fri 08:13:00 AM 58.7238 20.0417 55° Northeast  Level Estimated
Fri 08:14:00 AM 58.7880 20.2211 55° Northeast  Level Estimated
Fri 08:15:00 AM 58.8519 20.4011 56° Northeast  Level Estimated
Fri 08:16:00 AM 58.9155 20.5819 56° Northeast  Level Estimated
Fri 08:17:00 AM 58.9789 20.7633 56° Northeast  Level Estimated
Fri 08:18:00 AM 59.0420 20.9453 56° Northeast  Level Estimated
Fri 08:19:00 AM 59.1049 21.1280 56° Northeast  Level Estimated
Fri 08:20:00 AM 59.1675 21.3114 56° Northeast  Level Estimated
Fri 08:21:00 AM 59.2299 21.4955 56° Northeast  Level Estimated
Fri 08:22:00 AM 59.2919 21.6803 57° Northeast  Level Estimated
Fri 08:23:00 AM 59.3538 21.8657 57° Northeast  Level Estimated
Fri 08:24:00 AM 59.4153 22.0518 57° Northeast  Level Estimated
Fri 08:25:00 AM 59.4766 22.2385 57° Northeast  Level Estimated
Fri 08:26:00 AM 59.5377 22.4260 57° Northeast  Level Estimated
Fri 08:27:00 AM 59.5984 22.6141 57° Northeast  Level Estimated
Fri 08:28:00 AM 59.6589 22.8029 58° Northeast  Level Estimated
Fri 08:29:00 AM 59.7192 22.9924 58° Northeast  Level Estimated
Fri 08:30:00 AM 59.7791 23.1826 58° Northeast  Level Estimated
Fri 08:31:00 AM 59.8388 23.3734 58° Northeast  Level Estimated
Fri 08:32:00 AM 59.8982 23.5650 58° Northeast  Level Estimated
Fri 08:33:00 AM 59.9573 23.7572 58° Northeast  Level Estimated
Fri 08:34:00 AM 60.0161 23.9501 59° Northeast  Level Estimated
Fri 08:35:00 AM 60.0747 24.1437 59° Northeast  Level Estimated
Fri 08:36:00 AM 60.1329 24.3379 59° Northeast  Level Estimated
Fri 08:37:00 AM 60.1909 24.5329 59° Northeast  Level Estimated
Fri 08:38:00 AM 60.2486 24.7286 59° Northeast  Level Estimated
Fri 08:39:00 AM 60.3060 24.9249 59° Northeast  Level Estimated
Fri 08:40:00 AM 60.3172 24.9633 60° Northeast  Level Estimated
Fri 08:41:00 AM 60.3172 24.9633 North  Level Estimated
Fri 08:42:00 AM 60.3172 24.9633 North  Level Estimated
Fri 08:43:00 AM 60.3172 24.9633 North  Level Estimated
Fri 08:44:00 AM 60.3172 24.9633 North  Level Estimated
Fri 08:45:00 AM 60.3172 24.9633 North  Level Estimated
Fri 08:46:00 AM 60.3172 24.9633 North  Level Estimated
Fri 08:47:00 AM 60.3172 24.9633 North  Level Estimated
Fri 08:48:00 AM 60.3172 24.9633 North  Level Estimated
Fri 08:49:00 AM 60.3172 24.9633 North  Level Estimated
Fri 08:50:00 AM 60.3172 24.9633 North  Level Estimated
Fri 08:51:00 AM 60.3172 24.9633 North  Level Estimated

Login

Don't have an account? Register now (free) for customized features, flight alerts, and more!